sensor_id;sensor_type;location;lat;lon;timestamp;P1;durP1;ratioP1;P2;durP2;ratioP2
2035;SDS011;23642;42.658;23.350;2023-04-04T00:01:58;51.57;;;48.97;;
2035;SDS011;23642;42.658;23.350;2023-04-04T00:04:25;52.07;;;49.27;;
2035;SDS011;23642;42.658;23.350;2023-04-04T00:06:53;53.03;;;50.33;;
2035;SDS011;23642;42.658;23.350;2023-04-04T00:09:20;52.93;;;50.23;;
2035;SDS011;23642;42.658;23.350;2023-04-04T00:11:48;54.37;;;51.63;;
2035;SDS011;23642;42.658;23.350;2023-04-04T00:14:15;55.27;;;52.47;;
2035;SDS011;23642;42.658;23.350;2023-04-04T00:16:42;54.10;;;51.30;;
2035;SDS011;23642;42.658;23.350;2023-04-04T00:19:11;57.40;;;54.50;;
2035;SDS011;23642;42.658;23.350;2023-04-04T00:21:42;56.83;;;53.93;;
2035;SDS011;23642;42.658;23.350;2023-04-04T00:24:09;57.20;;;54.30;;
2035;SDS011;23642;42.658;23.350;2023-04-04T00:26:36;57.20;;;54.30;;
2035;SDS011;23642;42.658;23.350;2023-04-04T00:29:06;57.83;;;54.83;;
2035;SDS011;23642;42.658;23.350;2023-04-04T00:31:33;59.07;;;55.97;;
2035;SDS011;23642;42.658;23.350;2023-04-04T00:34:00;58.00;;;55.00;;
2035;SDS011;23642;42.658;23.350;2023-04-04T00:36:27;59.37;;;56.27;;
2035;SDS011;23642;42.658;23.350;2023-04-04T00:38:54;59.37;;;56.27;;
2035;SDS011;23642;42.658;23.350;2023-04-04T00:41:21;61.97;;;58.77;;
2035;SDS011;23642;42.658;23.350;2023-04-04T00:43:48;61.37;;;57.97;;
2035;SDS011;23642;42.658;23.350;2023-04-04T00:46:16;60.47;;;57.27;;
2035;SDS011;23642;42.658;23.350;2023-04-04T00:48:44;62.07;;;58.77;;
2035;SDS011;23642;42.658;23.350;2023-04-04T00:51:11;62.63;;;59.33;;
2035;SDS011;23642;42.658;23.350;2023-04-04T00:53:38;60.50;;;57.30;;
2035;SDS011;23642;42.658;23.350;2023-04-04T00:56:07;61.53;;;58.33;;
2035;SDS011;23642;42.658;23.350;2023-04-04T00:58:34;60.43;;;57.23;;
2035;SDS011;23642;42.658;23.350;2023-04-04T01:01:01;62.80;;;59.40;;
2035;SDS011;23642;42.658;23.350;2023-04-04T01:03:29;62.30;;;58.93;;
2035;SDS011;23642;42.658;23.350;2023-04-04T01:05:59;63.73;;;60.33;;
2035;SDS011;23642;42.658;23.350;2023-04-04T01:08:26;65.50;;;62.00;;
2035;SDS011;23642;42.658;23.350;2023-04-04T01:10:55;65.10;;;61.67;;
2035;SDS011;23642;42.658;23.350;2023-04-04T01:13:23;65.50;;;62.00;;
2035;SDS011;23642;42.658;23.350;2023-04-04T01:15:50;67.30;;;63.70;;
2035;SDS011;23642;42.658;23.350;2023-04-04T01:18:17;67.50;;;63.90;;
2035;SDS011;23642;42.658;23.350;2023-04-04T01:20:50;70.60;;;66.40;;
2035;SDS011;23642;42.658;23.350;2023-04-04T01:23:23;67.97;;;64.20;;
2035;SDS011;23642;42.658;23.350;2023-04-04T01:26:02;70.20;;;66.40;;
2035;SDS011;23642;42.658;23.350;2023-04-04T01:28:30;67.80;;;64.00;;
2035;SDS011;23642;42.658;23.350;2023-04-04T01:30:57;67.80;;;64.10;;
2035;SDS011;23642;42.658;23.350;2023-04-04T01:33:26;60.13;;;56.93;;
2035;SDS011;23642;42.658;23.350;2023-04-04T01:36:01;57.87;;;54.80;;
2035;SDS011;23642;42.658;23.350;2023-04-04T01:38:34;59.53;;;56.33;;
2035;SDS011;23642;42.658;23.350;2023-04-04T01:41:09;60.17;;;56.97;;
2035;SDS011;23642;42.658;23.350;2023-04-04T01:43:36;58.93;;;55.83;;
2035;SDS011;23642;42.658;23.350;2023-04-04T01:46:03;57.60;;;54.60;;
2035;SDS011;23642;42.658;23.350;2023-04-04T01:48:30;57.27;;;54.33;;
2035;SDS011;23642;42.658;23.350;2023-04-04T01:50:58;59.40;;;56.20;;
2035;SDS011;23642;42.658;23.350;2023-04-04T01:53:26;59.27;;;55.87;;
2035;SDS011;23642;42.658;23.350;2023-04-04T01:55:53;61.33;;;58.03;;
2035;SDS011;23642;42.658;23.350;2023-04-04T01:58:22;62.90;;;59.60;;
2035;SDS011;23642;42.658;23.350;2023-04-04T02:00:48;60.93;;;57.73;;
2035;SDS011;23642;42.658;23.350;2023-04-04T02:03:15;60.13;;;56.90;;
2035;SDS011;23642;42.658;23.350;2023-04-04T02:05:42;57.07;;;54.17;;
2035;SDS011;23642;42.658;23.350;2023-04-04T02:08:13;58.67;;;55.67;;
2035;SDS011;23642;42.658;23.350;2023-04-04T02:10:40;57.57;;;54.67;;
2035;SDS011;23642;42.658;23.350;2023-04-04T02:13:07;58.70;;;55.70;;
2035;SDS011;23642;42.658;23.350;2023-04-04T02:15:36;60.47;;;57.37;;
2035;SDS011;23642;42.658;23.350;2023-04-04T02:18:03;60.20;;;57.20;;
2035;SDS011;23642;42.658;23.350;2023-04-04T02:20:30;60.20;;;57.10;;
2035;SDS011;23642;42.658;23.350;2023-04-04T02:22:56;59.57;;;56.37;;
2035;SDS011;23642;42.658;23.350;2023-04-04T02:25:23;60.20;;;57.10;;
2035;SDS011;23642;42.658;23.350;2023-04-04T02:27:50;58.13;;;55.13;;
2035;SDS011;23642;42.658;23.350;2023-04-04T02:30:17;60.30;;;57.10;;
2035;SDS011;23642;42.658;23.350;2023-04-04T02:32:46;60.93;;;57.83;;
2035;SDS011;23642;42.658;23.350;2023-04-04T02:35:13;59.70;;;56.60;;
2035;SDS011;23642;42.658;23.350;2023-04-04T02:37:39;61.27;;;58.00;;
2035;SDS011;23642;42.658;23.350;2023-04-04T02:40:07;62.10;;;58.90;;
2035;SDS011;23642;42.658;23.350;2023-04-04T02:42:34;61.03;;;57.83;;
2035;SDS011;23642;42.658;23.350;2023-04-04T02:45:01;60.87;;;57.63;;
2035;SDS011;23642;42.658;23.350;2023-04-04T02:47:28;60.90;;;57.70;;
2035;SDS011;23642;42.658;23.350;2023-04-04T02:49:57;60.63;;;57.43;;
2035;SDS011;23642;42.658;23.350;2023-04-04T02:52:24;60.77;;;57.57;;
2035;SDS011;23642;42.658;23.350;2023-04-04T02:54:51;61.70;;;58.50;;
2035;SDS011;23642;42.658;23.350;2023-04-04T02:57:19;61.63;;;58.37;;
2035;SDS011;23642;42.658;23.350;2023-04-04T02:59:46;63.47;;;59.97;;
2035;SDS011;23642;42.658;23.350;2023-04-04T03:02:13;63.70;;;60.30;;
2035;SDS011;23642;42.658;23.350;2023-04-04T03:04:40;65.00;;;61.50;;
2035;SDS011;23642;42.658;23.350;2023-04-04T03:07:08;63.90;;;60.50;;
2035;SDS011;23642;42.658;23.350;2023-04-04T03:09:36;63.87;;;60.47;;
2035;SDS011;23642;42.658;23.350;2023-04-04T03:12:03;65.23;;;61.63;;
2035;SDS011;23642;42.658;23.350;2023-04-04T03:14:30;66.50;;;62.80;;
2035;SDS011;23642;42.658;23.350;2023-04-04T03:16:57;65.80;;;62.20;;
2035;SDS011;23642;42.658;23.350;2023-04-04T03:19:24;64.67;;;61.10;;
2035;SDS011;23642;42.658;23.350;2023-04-04T03:21:51;65.10;;;61.50;;
2035;SDS011;23642;42.658;23.350;2023-04-04T03:24:19;63.27;;;59.67;;
2035;SDS011;23642;42.658;23.350;2023-04-04T03:26:46;65.60;;;61.80;;
2035;SDS011;23642;42.658;23.350;2023-04-04T03:29:13;64.73;;;61.13;;
2035;SDS011;23642;42.658;23.350;2023-04-04T03:31:40;65.23;;;61.57;;
2035;SDS011;23642;42.658;23.350;2023-04-04T03:34:07;69.90;;;66.00;;
2035;SDS011;23642;42.658;23.350;2023-04-04T03:36:38;68.03;;;64.23;;
2035;SDS011;23642;42.658;23.350;2023-04-04T03:39:05;66.47;;;62.67;;
2035;SDS011;23642;42.658;23.350;2023-04-04T03:41:33;67.97;;;64.07;;
2035;SDS011;23642;42.658;23.350;2023-04-04T03:44:04;67.17;;;63.37;;
2035;SDS011;23642;42.658;23.350;2023-04-04T03:46:30;67.70;;;63.90;;
2035;SDS011;23642;42.658;23.350;2023-04-04T03:48:58;67.37;;;63.57;;
2035;SDS011;23642;42.658;23.350;2023-04-04T03:51:25;65.97;;;62.27;;
2035;SDS011;23642;42.658;23.350;2023-04-04T03:53:52;68.10;;;64.30;;
2035;SDS011;23642;42.658;23.350;2023-04-04T03:56:19;68.27;;;64.37;;
2035;SDS011;23642;42.658;23.350;2023-04-04T03:58:49;70.63;;;66.53;;
2035;SDS011;23642;42.658;23.350;2023-04-04T04:01:17;68.20;;;64.30;;
2035;SDS011;23642;42.658;23.350;2023-04-04T04:03:45;69.23;;;65.33;;
2035;SDS011;23642;42.658;23.350;2023-04-04T04:06:15;70.67;;;66.57;;
2035;SDS011;23642;42.658;23.350;2023-04-04T04:08:43;73.37;;;68.83;;
2035;SDS011;23642;42.658;23.350;2023-04-04T04:11:10;71.50;;;67.30;;
2035;SDS011;23642;42.658;23.350;2023-04-04T04:13:36;72.30;;;68.00;;
2035;SDS011;23642;42.658;23.350;2023-04-04T04:16:06;72.57;;;68.27;;
2035;SDS011;23642;42.658;23.350;2023-04-04T04:18:33;73.57;;;69.07;;
2035;SDS011;23642;42.658;23.350;2023-04-04T04:21:00;70.10;;;65.80;;
2035;SDS011;23642;42.658;23.350;2023-04-04T04:23:28;70.60;;;66.40;;
2035;SDS011;23642;42.658;23.350;2023-04-04T04:25:55;71.40;;;67.20;;
2035;SDS011;23642;42.658;23.350;2023-04-04T04:28:25;72.90;;;68.53;;
2035;SDS011;23642;42.658;23.350;2023-04-04T04:30:53;69.63;;;65.27;;
2035;SDS011;23642;42.658;23.350;2023-04-04T04:33:28;71.47;;;67.17;;
2035;SDS011;23642;42.658;23.350;2023-04-04T04:35:57;72.87;;;68.47;;
2035;SDS011;23642;42.658;23.350;2023-04-04T04:38:26;73.03;;;68.53;;
2035;SDS011;23642;42.658;23.350;2023-04-04T04:40:53;72.53;;;68.03;;
2035;SDS011;23642;42.658;23.350;2023-04-04T04:43:20;70.77;;;66.47;;
2035;SDS011;23642;42.658;23.350;2023-04-04T04:45:47;70.50;;;66.10;;
2035;SDS011;23642;42.658;23.350;2023-04-04T04:48:14;71.20;;;66.80;;
2035;SDS011;23642;42.658;23.350;2023-04-04T04:50:43;71.90;;;67.40;;
2035;SDS011;23642;42.658;23.350;2023-04-04T04:53:11;70.67;;;66.13;;
2035;SDS011;23642;42.658;23.350;2023-04-04T04:55:38;72.60;;;67.90;;
2035;SDS011;23642;42.658;23.350;2023-04-04T04:58:07;71.30;;;66.80;;
2035;SDS011;23642;42.658;23.350;2023-04-04T05:00:35;73.77;;;68.80;;
2035;SDS011;23642;42.658;23.350;2023-04-04T05:03:01;74.87;;;70.07;;
2035;SDS011;23642;42.658;23.350;2023-04-04T05:05:30;76.47;;;71.50;;
2035;SDS011;23642;42.658;23.350;2023-04-04T05:07:59;76.87;;;71.97;;
2035;SDS011;23642;42.658;23.350;2023-04-04T05:10:31;77.23;;;72.10;;
2035;SDS011;23642;42.658;23.350;2023-04-04T05:12:57;77.67;;;72.57;;
2035;SDS011;23642;42.658;23.350;2023-04-04T05:15:24;78.20;;;73.10;;
2035;SDS011;23642;42.658;23.350;2023-04-04T05:17:53;80.37;;;74.80;;
2035;SDS011;23642;42.658;23.350;2023-04-04T05:20:20;80.80;;;75.40;;
2035;SDS011;23642;42.658;23.350;2023-04-04T05:22:47;81.53;;;76.03;;
2035;SDS011;23642;42.658;23.350;2023-04-04T05:25:16;80.10;;;74.70;;
2035;SDS011;23642;42.658;23.350;2023-04-04T05:27:45;78.90;;;73.63;;
2035;SDS011;23642;42.658;23.350;2023-04-04T05:30:13;80.13;;;74.73;;
2035;SDS011;23642;42.658;23.350;2023-04-04T05:32:41;81.07;;;75.77;;
2035;SDS011;23642;42.658;23.350;2023-04-04T05:35:11;85.50;;;79.67;;
2035;SDS011;23642;42.658;23.350;2023-04-04T05:37:41;83.67;;;78.00;;
2035;SDS011;23642;42.658;23.350;2023-04-04T05:40:08;85.03;;;79.43;;
2035;SDS011;23642;42.658;23.350;2023-04-04T05:42:37;82.60;;;77.10;;
2035;SDS011;23642;42.658;23.350;2023-04-04T05:45:05;86.23;;;80.33;;
2035;SDS011;23642;42.658;23.350;2023-04-04T05:47:32;85.93;;;80.13;;
2035;SDS011;23642;42.658;23.350;2023-04-04T05:50:01;87.27;;;81.20;;
2035;SDS011;23642;42.658;23.350;2023-04-04T05:52:30;87.03;;;81.13;;
2035;SDS011;23642;42.658;23.350;2023-04-04T05:54:57;89.50;;;83.50;;
2035;SDS011;23642;42.658;23.350;2023-04-04T05:57:24;87.87;;;82.00;;
2035;SDS011;23642;42.658;23.350;2023-04-04T05:59:53;91.13;;;84.73;;
2035;SDS011;23642;42.658;23.350;2023-04-04T06:02:20;90.03;;;83.87;;
2035;SDS011;23642;42.658;23.350;2023-04-04T06:04:47;94.00;;;87.40;;
2035;SDS011;23642;42.658;23.350;2023-04-04T06:07:13;90.60;;;84.27;;
2035;SDS011;23642;42.658;23.350;2023-04-04T06:09:40;88.10;;;81.90;;
2035;SDS011;23642;42.658;23.350;2023-04-04T06:12:07;91.43;;;85.03;;
2035;SDS011;23642;42.658;23.350;2023-04-04T06:14:36;95.80;;;89.20;;
2035;SDS011;23642;42.658;23.350;2023-04-04T06:17:05;97.30;;;90.40;;
2035;SDS011;23642;42.658;23.350;2023-04-04T06:19:33;97.23;;;90.63;;
2035;SDS011;23642;42.658;23.350;2023-04-04T06:22:00;99.13;;;92.40;;
2035;SDS011;23642;42.658;23.350;2023-04-04T06:24:27;98.33;;;91.60;;
2035;SDS011;23642;42.658;23.350;2023-04-04T06:26:59;98.87;;;92.07;;
2035;SDS011;23642;42.658;23.350;2023-04-04T06:29:30;96.47;;;90.00;;
2035;SDS011;23642;42.658;23.350;2023-04-04T06:31:59;100.93;;;94.03;;
2035;SDS011;23642;42.658;23.350;2023-04-04T06:34:31;100.33;;;93.37;;
2035;SDS011;23642;42.658;23.350;2023-04-04T06:36:59;101.10;;;94.30;;
2035;SDS011;23642;42.658;23.350;2023-04-04T06:39:27;101.23;;;94.33;;
2035;SDS011;23642;42.658;23.350;2023-04-04T06:41:58;98.27;;;91.67;;
2035;SDS011;23642;42.658;23.350;2023-04-04T06:44:28;98.77;;;92.07;;
2035;SDS011;23642;42.658;23.350;2023-04-04T06:46:54;93.70;;;87.40;;
2035;SDS011;23642;42.658;23.350;2023-04-04T06:49:22;86.67;;;81.00;;
2035;SDS011;23642;42.658;23.350;2023-04-04T06:51:50;87.20;;;81.50;;
2035;SDS011;23642;42.658;23.350;2023-04-04T06:54:18;85.53;;;79.83;;
2035;SDS011;23642;42.658;23.350;2023-04-04T06:56:47;83.73;;;78.23;;
2035;SDS011;23642;42.658;23.350;2023-04-04T06:59:14;84.20;;;78.70;;
2035;SDS011;23642;42.658;23.350;2023-04-04T07:01:44;81.27;;;75.77;;
2035;SDS011;23642;42.658;23.350;2023-04-04T07:04:12;82.20;;;76.90;;
2035;SDS011;23642;42.658;23.350;2023-04-04T07:06:39;82.40;;;77.00;;
2035;SDS011;23642;42.658;23.350;2023-04-04T07:09:09;80.27;;;75.03;;
2035;SDS011;23642;42.658;23.350;2023-04-04T07:11:37;79.30;;;74.10;;
2035;SDS011;23642;42.658;23.350;2023-04-04T07:14:04;79.60;;;74.30;;
2035;SDS011;23642;42.658;23.350;2023-04-04T07:16:30;77.20;;;72.10;;
2035;SDS011;23642;42.658;23.350;2023-04-04T07:18:58;78.60;;;73.50;;
2035;SDS011;23642;42.658;23.350;2023-04-04T07:21:25;76.10;;;71.10;;
2035;SDS011;23642;42.658;23.350;2023-04-04T07:23:52;77.87;;;72.77;;
2035;SDS011;23642;42.658;23.350;2023-04-04T07:26:21;78.97;;;73.83;;
2035;SDS011;23642;42.658;23.350;2023-04-04T07:28:51;79.30;;;74.10;;
2035;SDS011;23642;42.658;23.350;2023-04-04T07:31:18;78.60;;;73.50;;
2035;SDS011;23642;42.658;23.350;2023-04-04T07:33:45;81.63;;;76.33;;
2035;SDS011;23642;42.658;23.350;2023-04-04T07:36:12;81.17;;;75.97;;
2035;SDS011;23642;42.658;23.350;2023-04-04T07:38:39;80.63;;;75.43;;
2035;SDS011;23642;42.658;23.350;2023-04-04T07:41:07;86.27;;;80.77;;
2035;SDS011;23642;42.658;23.350;2023-04-04T07:43:37;86.10;;;80.70;;
2035;SDS011;23642;42.658;23.350;2023-04-04T07:46:05;86.40;;;81.00;;
2035;SDS011;23642;42.658;23.350;2023-04-04T07:48:33;86.37;;;80.90;;
2035;SDS011;23642;42.658;23.350;2023-04-04T07:51:01;86.33;;;80.73;;
2035;SDS011;23642;42.658;23.350;2023-04-04T07:53:33;85.43;;;80.03;;
2035;SDS011;23642;42.658;23.350;2023-04-04T07:56:00;85.13;;;79.73;;
2035;SDS011;23642;42.658;23.350;2023-04-04T07:58:30;86.20;;;80.80;;
2035;SDS011;23642;42.658;23.350;2023-04-04T08:00:59;86.77;;;81.37;;
2035;SDS011;23642;42.658;23.350;2023-04-04T08:03:26;80.27;;;75.07;;
2035;SDS011;23642;42.658;23.350;2023-04-04T08:05:53;83.20;;;77.80;;
2035;SDS011;23642;42.658;23.350;2023-04-04T08:08:30;81.23;;;75.93;;
2035;SDS011;23642;42.658;23.350;2023-04-04T08:10:57;87.53;;;82.03;;
2035;SDS011;23642;42.658;23.350;2023-04-04T08:13:26;86.20;;;80.80;;
2035;SDS011;23642;42.658;23.350;2023-04-04T08:15:54;82.38;;;77.07;;
2035;SDS011;23642;42.658;23.350;2023-04-04T08:18:24;82.03;;;76.73;;
2035;SDS011;23642;42.658;23.350;2023-04-04T08:20:52;82.67;;;77.37;;
2035;SDS011;23642;42.658;23.350;2023-04-04T08:23:28;84.63;;;79.20;;
2035;SDS011;23642;42.658;23.350;2023-04-04T08:25:55;83.33;;;78.03;;
2035;SDS011;23642;42.658;23.350;2023-04-04T08:28:24;84.63;;;79.23;;
2035;SDS011;23642;42.658;23.350;2023-04-04T08:30:53;87.13;;;81.73;;
2035;SDS011;23642;42.658;23.350;2023-04-04T08:33:20;89.23;;;83.33;;
2035;SDS011;23642;42.658;23.350;2023-04-04T08:35:49;87.03;;;81.63;;
2035;SDS011;23642;42.658;23.350;2023-04-04T08:38:17;85.93;;;80.33;;
2035;SDS011;23642;42.658;23.350;2023-04-04T08:40:44;85.03;;;79.63;;
2035;SDS011;23642;42.658;23.350;2023-04-04T08:43:13;83.20;;;77.80;;
2035;SDS011;23642;42.658;23.350;2023-04-04T08:45:41;82.10;;;76.80;;
2035;SDS011;23642;42.658;23.350;2023-04-04T08:48:10;83.97;;;78.67;;
2035;SDS011;23642;42.658;23.350;2023-04-04T08:50:39;83.17;;;77.77;;
2035;SDS011;23642;42.658;23.350;2023-04-04T08:53:09;87.57;;;82.07;;
2035;SDS011;23642;42.658;23.350;2023-04-04T08:55:38;87.50;;;82.00;;
2035;SDS011;23642;42.658;23.350;2023-04-04T08:58:06;89.40;;;83.80;;
2035;SDS011;23642;42.658;23.350;2023-04-04T09:00:33;84.17;;;78.77;;
2035;SDS011;23642;42.658;23.350;2023-04-04T09:03:04;85.30;;;79.80;;
2035;SDS011;23642;42.658;23.350;2023-04-04T09:05:34;83.60;;;78.20;;
2035;SDS011;23642;42.658;23.350;2023-04-04T09:08:02;83.97;;;78.57;;
2035;SDS011;23642;42.658;23.350;2023-04-04T09:10:32;85.67;;;80.17;;
2035;SDS011;23642;42.658;23.350;2023-04-04T09:13:00;88.17;;;82.67;;
2035;SDS011;23642;42.658;23.350;2023-04-04T09:15:29;86.67;;;81.27;;
2035;SDS011;23642;42.658;23.350;2023-04-04T09:17:58;87.80;;;82.20;;
2035;SDS011;23642;42.658;23.350;2023-04-04T09:20:34;84.00;;;78.60;;
2035;SDS011;23642;42.658;23.350;2023-04-04T09:23:09;86.07;;;80.57;;
2035;SDS011;23642;42.658;23.350;2023-04-04T09:25:38;85.70;;;80.20;;
2035;SDS011;23642;42.658;23.350;2023-04-04T09:28:14;83.80;;;78.30;;
2035;SDS011;23642;42.658;23.350;2023-04-04T09:30:41;84.07;;;78.67;;
2035;SDS011;23642;42.658;23.350;2023-04-04T09:33:09;83.33;;;78.03;;
2035;SDS011;23642;42.658;23.350;2023-04-04T09:35:37;88.63;;;83.03;;
2035;SDS011;23642;42.658;23.350;2023-04-04T09:38:06;91.03;;;85.33;;
2035;SDS011;23642;42.658;23.350;2023-04-04T09:40:33;87.23;;;81.63;;
2035;SDS011;23642;42.658;23.350;2023-04-04T09:43:05;85.17;;;79.70;;
2035;SDS011;23642;42.658;23.350;2023-04-04T09:45:34;86.50;;;80.93;;
2035;SDS011;23642;42.658;23.350;2023-04-04T09:48:06;87.83;;;82.20;;
2035;SDS011;23642;42.658;23.350;2023-04-04T09:50:35;87.70;;;82.10;;
2035;SDS011;23642;42.658;23.350;2023-04-04T09:53:03;87.27;;;81.67;;
2035;SDS011;23642;42.658;23.350;2023-04-04T09:55:35;90.83;;;85.03;;
2035;SDS011;23642;42.658;23.350;2023-04-04T09:58:11;93.83;;;87.93;;
2035;SDS011;23642;42.658;23.350;2023-04-04T10:00:40;93.93;;;88.03;;
2035;SDS011;23642;42.658;23.350;2023-04-04T10:03:10;92.27;;;86.33;;
2035;SDS011;23642;42.658;23.350;2023-04-04T10:05:39;91.63;;;85.73;;
2035;SDS011;23642;42.658;23.350;2023-04-04T10:08:13;90.87;;;85.07;;
2035;SDS011;23642;42.658;23.350;2023-04-04T10:10:49;92.87;;;86.93;;
2035;SDS011;23642;42.658;23.350;2023-04-04T10:13:27;91.83;;;85.93;;
2035;SDS011;23642;42.658;23.350;2023-04-04T10:16:02;93.57;;;87.57;;
2035;SDS011;23642;42.658;23.350;2023-04-04T10:18:30;96.90;;;90.80;;
2035;SDS011;23642;42.658;23.350;2023-04-04T10:20:59;97.77;;;91.77;;
2035;SDS011;23642;42.658;23.350;2023-04-04T10:23:27;96.60;;;90.60;;
2035;SDS011;23642;42.658;23.350;2023-04-04T10:25:58;98.77;;;92.67;;
2035;SDS011;23642;42.658;23.350;2023-04-04T10:28:29;95.47;;;89.37;;
2035;SDS011;23642;42.658;23.350;2023-04-04T10:30:59;95.03;;;88.93;;
2035;SDS011;23642;42.658;23.350;2023-04-04T10:33:35;98.03;;;91.70;;
2035;SDS011;23642;42.658;23.350;2023-04-04T10:36:06;99.10;;;92.70;;
2035;SDS011;23642;42.658;23.350;2023-04-04T10:38:38;100.10;;;93.60;;
2035;SDS011;23642;42.658;23.350;2023-04-04T10:41:10;99.60;;;93.10;;
2035;SDS011;23642;42.658;23.350;2023-04-04T10:43:40;95.70;;;89.50;;
2035;SDS011;23642;42.658;23.350;2023-04-04T10:46:10;101.97;;;95.57;;
2035;SDS011;23642;42.658;23.350;2023-04-04T10:48:43;101.27;;;94.87;;
2035;SDS011;23642;42.658;23.350;2023-04-04T10:51:11;94.17;;;88.07;;
2035;SDS011;23642;42.658;23.350;2023-04-04T10:53:40;95.17;;;89.07;;
2035;SDS011;23642;42.658;23.350;2023-04-04T10:56:07;95.60;;;89.40;;
2035;SDS011;23642;42.658;23.350;2023-04-04T10:58:38;98.10;;;91.90;;
2035;SDS011;23642;42.658;23.350;2023-04-04T11:01:07;96.83;;;90.67;;
2035;SDS011;23642;42.658;23.350;2023-04-04T11:09:46;92.17;;;86.27;;
2035;SDS011;23642;42.658;23.350;2023-04-04T11:12:13;93.70;;;87.63;;
2035;SDS011;23642;42.658;23.350;2023-04-04T11:14:53;95.57;;;89.47;;
2035;SDS011;23642;42.658;23.350;2023-04-04T11:20:22;96.97;;;90.77;;
2035;SDS011;23642;42.658;23.350;2023-04-04T11:22:49;98.30;;;92.07;;
2035;SDS011;23642;42.658;23.350;2023-04-04T11:25:28;99.10;;;92.90;;
2035;SDS011;23642;42.658;23.350;2023-04-04T11:27:57;98.57;;;92.27;;
2035;SDS011;23642;42.658;23.350;2023-04-04T11:30:24;94.43;;;88.27;;
2035;SDS011;23642;42.658;23.350;2023-04-04T11:32:55;93.20;;;87.20;;
2035;SDS011;23642;42.658;23.350;2023-04-04T11:35:23;94.23;;;88.33;;
2035;SDS011;23642;42.658;23.350;2023-04-04T11:38:02;96.83;;;90.73;;
2035;SDS011;23642;42.658;23.350;2023-04-04T11:40:35;95.33;;;89.37;;
2035;SDS011;23642;42.658;23.350;2023-04-04T11:43:08;96.07;;;89.93;;
2035;SDS011;23642;42.658;23.350;2023-04-04T11:45:36;97.67;;;91.57;;
2035;SDS011;23642;42.658;23.350;2023-04-04T11:48:23;95.70;;;89.60;;
2035;SDS011;23642;42.658;23.350;2023-04-04T11:50:51;100.10;;;93.90;;
2035;SDS011;23642;42.658;23.350;2023-04-04T11:53:19;96.80;;;90.40;;
2035;SDS011;23642;42.658;23.350;2023-04-04T11:55:53;94.13;;;88.13;;
2035;SDS011;23642;42.658;23.350;2023-04-04T11:58:20;94.70;;;88.70;;
2035;SDS011;23642;42.658;23.350;2023-04-04T12:00:50;92.63;;;86.73;;
2035;SDS011;23642;42.658;23.350;2023-04-04T12:06:00;91.70;;;85.70;;
2035;SDS011;23642;42.658;23.350;2023-04-04T12:08:27;91.47;;;85.57;;
2035;SDS011;23642;42.658;23.350;2023-04-04T12:10:54;91.30;;;85.30;;
2035;SDS011;23642;42.658;23.350;2023-04-04T12:13:26;90.40;;;84.60;;
2035;SDS011;23642;42.658;23.350;2023-04-04T12:15:59;91.00;;;84.90;;
2035;SDS011;23642;42.658;23.350;2023-04-04T12:18:39;92.63;;;86.63;;
2035;SDS011;23642;42.658;23.350;2023-04-04T12:21:13;90.80;;;85.00;;
2035;SDS011;23642;42.658;23.350;2023-04-04T12:23:46;92.70;;;86.90;;
2035;SDS011;23642;42.658;23.350;2023-04-04T12:26:13;92.77;;;86.87;;
2035;SDS011;23642;42.658;23.350;2023-04-04T12:28:42;91.33;;;85.53;;
2035;SDS011;23642;42.658;23.350;2023-04-04T12:31:11;91.97;;;86.07;;
2035;SDS011;23642;42.658;23.350;2023-04-04T12:33:43;90.70;;;84.93;;
2035;SDS011;23642;42.658;23.350;2023-04-04T12:36:11;90.17;;;84.37;;
2035;SDS011;23642;42.658;23.350;2023-04-04T12:38:38;90.53;;;84.67;;
2035;SDS011;23642;42.658;23.350;2023-04-04T12:41:32;86.70;;;81.00;;
2035;SDS011;23642;42.658;23.350;2023-04-04T12:44:00;88.60;;;82.50;;
2035;SDS011;23642;42.658;23.350;2023-04-04T12:46:28;87.33;;;81.73;;
2035;SDS011;23642;42.658;23.350;2023-04-04T12:49:10;86.70;;;81.20;;
2035;SDS011;23642;42.658;23.350;2023-04-04T12:51:41;87.50;;;81.90;;
2035;SDS011;23642;42.658;23.350;2023-04-04T12:54:23;87.90;;;82.20;;
2035;SDS011;23642;42.658;23.350;2023-04-04T12:56:59;90.10;;;84.30;;
2035;SDS011;23642;42.658;23.350;2023-04-04T12:59:32;89.90;;;84.17;;
2035;SDS011;23642;42.658;23.350;2023-04-04T13:02:01;88.10;;;82.50;;
2035;SDS011;23642;42.658;23.350;2023-04-04T13:08:09;90.97;;;85.17;;
2035;SDS011;23642;42.658;23.350;2023-04-04T13:13:29;89.47;;;83.67;;
2035;SDS011;23642;42.658;23.350;2023-04-04T13:15:57;88.78;;;82.88;;
2035;SDS011;23642;42.658;23.350;2023-04-04T13:21:30;89.60;;;83.70;;
2035;SDS011;23642;42.658;23.350;2023-04-04T13:27:56;91.00;;;85.10;;
2035;SDS011;23642;42.658;23.350;2023-04-04T13:30:28;87.32;;;81.53;;
2035;SDS011;23642;42.658;23.350;2023-04-04T13:32:55;90.00;;;84.30;;
2035;SDS011;23642;42.658;23.350;2023-04-04T13:35:26;88.77;;;83.07;;
2035;SDS011;23642;42.658;23.350;2023-04-04T13:40:43;88.60;;;82.80;;
2035;SDS011;23642;42.658;23.350;2023-04-04T13:43:10;90.50;;;84.80;;
2035;SDS011;23642;42.658;23.350;2023-04-04T13:45:45;89.00;;;83.20;;
2035;SDS011;23642;42.658;23.350;2023-04-04T13:48:17;88.00;;;82.20;;
2035;SDS011;23642;42.658;23.350;2023-04-04T13:50:46;89.70;;;83.90;;
2035;SDS011;23642;42.658;23.350;2023-04-04T13:53:15;86.57;;;80.87;;
2035;SDS011;23642;42.658;23.350;2023-04-04T13:55:58;85.50;;;80.00;;
2035;SDS011;23642;42.658;23.350;2023-04-04T13:58:39;84.07;;;78.68;;
2035;SDS011;23642;42.658;23.350;2023-04-04T14:01:06;83.85;;;78.40;;
2035;SDS011;23642;42.658;23.350;2023-04-04T14:03:36;86.45;;;80.68;;
2035;SDS011;23642;42.658;23.350;2023-04-04T14:06:13;86.03;;;80.43;;
2035;SDS011;23642;42.658;23.350;2023-04-04T14:08:53;85.30;;;79.57;;
2035;SDS011;23642;42.658;23.350;2023-04-04T14:11:29;84.05;;;78.45;;
2035;SDS011;23642;42.658;23.350;2023-04-04T14:13:56;88.75;;;83.15;;
2035;SDS011;23642;42.658;23.350;2023-04-04T14:16:26;86.35;;;80.80;;
2035;SDS011;23642;42.658;23.350;2023-04-04T14:18:53;90.05;;;84.25;;
2035;SDS011;23642;42.658;23.350;2023-04-04T14:21:21;86.70;;;81.05;;
2035;SDS011;23642;42.658;23.350;2023-04-04T14:23:49;83.63;;;78.20;;
2035;SDS011;23642;42.658;23.350;2023-04-04T14:26:19;81.93;;;76.70;;
2035;SDS011;23642;42.658;23.350;2023-04-04T14:28:50;85.13;;;79.63;;
2035;SDS011;23642;42.658;23.350;2023-04-04T14:31:16;84.38;;;78.88;;
2035;SDS011;23642;42.658;23.350;2023-04-04T14:33:43;83.53;;;78.13;;
2035;SDS011;23642;42.658;23.350;2023-04-04T14:36:12;82.20;;;76.80;;
2035;SDS011;23642;42.658;23.350;2023-04-04T14:41:28;81.22;;;75.88;;
2035;SDS011;23642;42.658;23.350;2023-04-04T14:43:56;78.65;;;73.45;;
2035;SDS011;23642;42.658;23.350;2023-04-04T14:46:28;83.85;;;78.45;;
2035;SDS011;23642;42.658;23.350;2023-04-04T14:48:58;84.13;;;78.53;;
2035;SDS011;23642;42.658;23.350;2023-04-04T14:51:27;77.00;;;71.90;;
2035;SDS011;23642;42.658;23.350;2023-04-04T14:53:56;80.57;;;74.97;;
2035;SDS011;23642;42.658;23.350;2023-04-04T14:56:23;79.75;;;74.45;;
2035;SDS011;23642;42.658;23.350;2023-04-04T14:58:50;80.63;;;75.32;;
2035;SDS011;23642;42.658;23.350;2023-04-04T15:01:24;80.78;;;75.47;;
2035;SDS011;23642;42.658;23.350;2023-04-04T15:03:51;79.50;;;74.20;;